Pagina principale
METAR-TAF:

METAR-TAF

Aeroporti :

Aeroporto di Pechino-Capitale

Pechino, Cina

latitudine: 39-56N, longitudine: 116-17E, altezza: 55 m

Osservazione

Il bollettino è stato emesso 40 minuti fa, alle 06:00 UTC
Vento 4 kt da direzioni variabili
Temperature 14°C
Umidità 63%
Pressione 1011 hPa
Visibilità 10 km o più
Nubi sparse ad un'altezza di 2000 ft

METAR: ZBAA 200600Z VRB02MPS 9999 SCT020 14/07 Q1011 NOSIG

Ora: 14:40 (06:40 UTC)

Previsione

Il bollettino è stato emesso 3 ore e 20 minuti fa, alle 03:20 UTC
Previsione valida dal 20 alle 06 UTC al 21 alle 06 UTC
Vento 8 kt da sud-est
Visibilità: 6000 m

TAF: ZBAA 200320Z 2006/2106 13004MPS 6000 NSC TX20/2006Z TN04/2021Z

Osservazioni e previsioni meteorologiche di più di 4000 aeroporti (messaggi METAR e TAF).

Le stazioni disponibili sono rappresentate dai dischi gialli e rossi sulla carta.

Puntare il mouse per vedere il nome della stazione.

Clicca sopra per visualizzare le osservazioni e previsioni meteorologiche.

Per cambiare la mappa : fare clic sui pulsanti verdi con una croce nera per ingrandire, il pulsante verde con un trattino per diminuire, o sulla freccia verde per le mappe adiacenti.


METAR-TAF: